Time;durP1;ratioP1;P1;durP2;ratioP2;P2;SDS_P1;SDS_P2;PMS_P1;PMS_P2;Temp;Humidity;BMP_temperature;BMP_pressure;BME280_temperature;BME280_humidity;BME280_pressure;Samples;Min_cycle;Max_cycle;Signal;HPM_P1;HPM_P2
2023/09/29 00:01:48;;;;;;;23.08;6.13;;;;;;;11.28;96.97;100129.84;4992965;28;20050;-45
2023/09/29 00:04:15;;;;;;;19.13;6.40;;;;;;;11.25;97.33;100119.50;4992262;28;20052;-45
2023/09/29 00:06:41;;;;;;;21.60;7.68;;;;;;;11.24;97.21;100117.91;4991729;28;20060;-44
2023/09/29 00:09:11;;;;;;;21.90;6.57;;;;;;;11.24;97.44;100134.53;4990460;28;20038;-44
2023/09/29 00:11:39;;;;;;;20.20;5.72;;;;;;;11.22;97.35;100134.09;4991780;28;20042;-45
2023/09/29 00:14:06;;;;;;;21.20;7.32;;;;;;;11.21;97.55;100124.19;4990268;28;20488;-44
2023/09/29 00:16:33;;;;;;;24.83;6.78;;;;;;;11.20;97.76;100133.66;4990807;28;20053;-45
2023/09/29 00:19:01;;;;;;;21.05;6.45;;;;;;;11.19;97.49;100145.91;4993785;28;20077;-44
2023/09/29 00:21:28;;;;;;;20.80;6.90;;;;;;;11.19;97.74;100148.69;5000456;28;20050;-45
2023/09/29 00:23:55;;;;;;;16.00;5.35;;;;;;;11.20;97.74;100160.56;4972160;28;20046;-45
2023/09/29 00:26:22;;;;;;;18.38;6.05;;;;;;;11.19;97.51;100168.06;4974263;28;20053;-44
2023/09/29 00:28:49;;;;;;;23.52;6.32;;;;;;;11.19;97.75;100173.63;4991548;28;20559;-45
2023/09/29 00:31:15;;;;;;;18.20;6.20;;;;;;;11.19;97.74;100175.59;4991136;28;20057;-44
2023/09/29 00:33:42;;;;;;;18.67;6.07;;;;;;;11.18;97.87;100183.09;4991213;28;20092;-44
2023/09/29 00:36:11;;;;;;;18.00;7.75;;;;;;;11.17;97.70;100184.28;4991583;28;20054;-45
2023/09/29 00:38:38;;;;;;;18.55;5.85;;;;;;;11.17;97.92;100194.53;4990982;28;20459;-41
2023/09/29 00:41:06;;;;;;;16.20;5.25;;;;;;;11.16;97.86;100182.66;4991329;28;20407;-44
2023/09/29 00:43:35;;;;;;;15.27;5.45;;;;;;;11.16;98.00;100187.38;4991280;28;20092;-49
2023/09/29 00:46:04;;;;;;;20.05;5.20;;;;;;;11.15;97.98;100192.13;4991525;28;20078;-44
2023/09/29 00:48:33;;;;;;;24.65;7.00;;;;;;;11.14;97.96;100201.63;4991099;28;20049;-45
2023/09/29 00:51:01;;;;;;;19.02;6.28;;;;;;;11.14;98.03;100203.56;4991156;28;20078;-45
2023/09/29 00:53:28;;;;;;;20.67;5.97;;;;;;;11.13;98.09;100199.19;4990587;28;20416;-45
2023/09/29 00:55:56;;;;;;;17.90;6.20;;;;;;;11.12;98.20;100214.22;5005653;28;20042;-45
2023/09/29 00:58:23;;;;;;;19.27;5.60;;;;;;;11.11;98.30;100223.69;4990828;28;20400;-45
2023/09/29 01:00:52;;;;;;;15.63;5.57;;;;;;;11.10;98.39;100217.34;4990856;28;20488;-44
2023/09/29 01:03:20;;;;;;;24.70;7.18;;;;;;;11.10;98.37;100217.34;4975769;28;20509;-44
2023/09/29 01:05:49;;;;;;;13.40;5.25;;;;;;;11.10;98.63;100228.41;4990707;28;20050;-45
2023/09/29 01:08:20;;;;;;;18.42;4.95;;;;;;;11.09;98.65;100235.16;4991090;28;20838;-45
2023/09/29 01:10:48;;;;;;;21.20;6.10;;;;;;;11.08;98.63;100222.44;4999974;28;20061;-46
2023/09/29 01:13:16;;;;;;;21.10;4.80;;;;;;;11.07;98.54;100234.69;4992308;28;20740;-45
2023/09/29 01:15:43;;;;;;;25.20;6.13;;;;;;;11.06;98.78;100224.78;4999179;28;20046;-45
2023/09/29 01:18:11;;;;;;;17.98;6.25;;;;;;;11.05;98.79;100231.47;4990167;28;20749;-44
2023/09/29 01:20:39;;;;;;;15.45;5.45;;;;;;;11.05;98.76;100237.00;4993943;28;20137;-45
2023/09/29 01:23:07;;;;;;;20.52;6.82;;;;;;;11.04;98.68;100240.94;4995828;28;20052;-44
2023/09/29 01:25:35;;;;;;;21.58;5.90;;;;;;;11.03;99.00;100239.34;4990608;28;20076;-45
2023/09/29 01:28:05;;;;;;;17.42;5.00;;;;;;;11.01;99.05;100248.00;4989153;28;20042;-45
2023/09/29 01:30:32;;;;;;;22.27;5.72;;;;;;;11.03;99.13;100250.44;4990300;28;20504;-42
2023/09/29 01:32:59;;;;;;;16.10;4.43;;;;;;;11.00;99.13;100249.19;4991393;28;20124;-43
2023/09/29 01:35:27;;;;;;;19.20;6.57;;;;;;;10.99;99.11;100243.97;4992266;28;20148;-42
2023/09/29 01:37:58;;;;;;;15.88;5.43;;;;;;;10.98;99.12;100242.41;5005630;28;20117;-42
2023/09/29 01:40:28;;;;;;;25.88;5.40;;;;;;;10.95;99.29;100241.16;4990526;28;20065;-42
2023/09/29 01:42:56;;;;;;;22.38;7.50;;;;;;;10.95;99.28;100248.66;4990018;28;20065;-42
2023/09/29 01:45:25;;;;;;;17.83;5.50;;;;;;;10.94;99.49;100247.84;4989777;28;20038;-42
2023/09/29 01:47:52;;;;;;;24.55;5.50;;;;;;;10.95;99.52;100259.72;4989676;28;20061;-44
2023/09/29 01:50:21;;;;;;;20.98;4.78;;;;;;;10.94;99.51;100244.25;4989731;28;20038;-44
2023/09/29 01:52:49;;;;;;;16.40;4.32;;;;;;;10.93;99.59;100248.22;4990054;28;20054;-42
2023/09/29 01:55:21;;;;;;;28.08;5.82;;;;;;;10.93;99.64;100251.75;4991129;28;20050;-42
2023/09/29 01:57:49;;;;;;;16.08;5.55;;;;;;;10.92;99.68;100249.38;5004671;28;20050;-42
2023/09/29 02:00:24;;;;;;;22.45;5.38;;;;;;;10.93;99.85;100249.00;4990064;28;20524;-43
2023/09/29 02:02:53;;;;;;;18.92;5.38;;;;;;;10.92;99.87;100249.38;4991048;28;20061;-42
2023/09/29 02:05:23;;;;;;;19.02;5.38;;;;;;;10.91;99.79;100248.56;4992600;28;20500;-43
2023/09/29 02:07:51;;;;;;;16.20;4.35;;;;;;;10.91;100.00;100258.81;4990229;28;20077;-42
2023/09/29 02:10:19;;;;;;;26.35;6.68;;;;;;;10.91;99.77;100269.91;4990394;28;20050;-45
2023/09/29 02:12:55;;;;;;;16.17;4.47;;;;;;;10.88;100.00;100260.34;4989485;28;20050;-42
2023/09/29 02:15:22;;;;;;;20.42;5.35;;;;;;;10.89;100.00;100264.72;4991863;28;20104;-42
2023/09/29 02:17:49;;;;;;;16.95;4.63;;;;;;;10.88;100.00;100270.66;4993490;28;20039;-43
2023/09/29 02:20:20;;;;;;;15.02;4.28;;;;;;;10.89;100.00;100275.00;4993506;28;20159;-43
2023/09/29 02:22:48;;;;;;;16.02;5.20;;;;;;;10.87;100.00;100278.16;4998938;28;20064;-42
2023/09/29 02:25:17;;;;;;;18.60;4.90;;;;;;;10.88;100.00;100271.41;4989400;28;20512;-42
2023/09/29 02:27:44;;;;;;;23.58;5.47;;;;;;;10.88;100.00;100276.19;4989610;28;20077;-48
2023/09/29 02:30:11;;;;;;;13.32;4.10;;;;;;;10.88;100.00;100281.72;4988327;28;20046;-43
2023/09/29 02:32:41;;;;;;;16.55;4.30;;;;;;;10.88;100.00;100281.72;4990186;28;20046;-42
2023/09/29 02:35:09;;;;;;;18.85;4.72;;;;;;;10.88;100.00;100287.25;4989727;28;20128;-41
2023/09/29 02:37:37;;;;;;;17.60;3.72;;;;;;;10.89;100.00;100284.13;5004304;28;20070;-42
2023/09/29 02:40:11;;;;;;;20.40;4.30;;;;;;;10.87;100.00;100286.44;4989765;28;20046;-42
2023/09/29 02:42:38;;;;;;;23.25;4.28;;;;;;;10.88;100.00;100295.56;4973688;28;20516;-42
2023/09/29 02:45:06;;;;;;;14.18;3.08;;;;;;;10.87;100.00;100303.06;4990823;28;20054;-43
2023/09/29 02:47:41;;;;;;;23.92;4.25;;;;;;;10.86;100.00;100300.63;4987746;28;20112;-42
2023/09/29 02:50:10;;;;;;;15.93;3.80;;;;;;;10.86;100.00;100314.50;4987946;28;20045;-42
2023/09/29 02:52:39;;;;;;;13.73;3.70;;;;;;;10.85;100.00;100310.13;4989289;28;20030;-42
2023/09/29 02:55:14;;;;;;;23.58;4.32;;;;;;;10.84;100.00;100319.59;4988283;28;20400;-42
2023/09/29 02:57:43;;;;;;;19.80;5.70;;;;;;;10.83;100.00;100315.19;4993142;28;20042;-42
2023/09/29 03:02:38;;;;;;;15.63;3.38;;;;;;;10.82;100.00;100324.69;5094107;23;20053;-42
2023/09/29 03:05:09;;;;;;;16.65;4.95;;;;;;;10.81;100.00;100321.09;5011825;28;20387;-42
2023/09/29 03:07:37;;;;;;;22.05;3.83;;;;;;;10.81;100.00;100323.06;5010277;28;20403;-42
2023/09/29 03:10:05;;;;;;;13.77;2.72;;;;;;;10.79;100.00;100330.94;5011917;28;20061;-43
2023/09/29 03:12:32;;;;;;;16.48;3.78;;;;;;;10.78;100.00;100332.88;5012171;28;20053;-42
2023/09/29 03:14:59;;;;;;;15.43;2.92;;;;;;;10.78;100.00;100326.53;5012050;28;20131;-41
2023/09/29 03:17:30;;;;;;;15.00;3.78;;;;;;;10.77;100.00;100327.72;5010993;28;20058;-41
2023/09/29 03:19:58;;;;;;;19.13;6.05;;;;;;;10.75;100.00;100324.50;5011402;28;20135;-41
2023/09/29 03:22:25;;;;;;;16.15;2.95;;;;;;;10.76;100.00;100342.72;5012277;28;20434;-41
2023/09/29 03:24:52;;;;;;;17.13;4.20;;;;;;;10.75;100.00;100343.91;5008412;28;20092;-41
2023/09/29 03:27:19;;;;;;;13.38;4.25;;;;;;;10.75;100.00;100346.66;5011553;28;20104;-41
2023/09/29 03:29:45;;;;;;;13.57;3.42;;;;;;;10.74;100.00;100358.88;5011065;28;20038;-41
2023/09/29 03:32:12;;;;;;;20.48;4.22;;;;;;;10.75;100.00;100371.59;5011650;28;20053;-41
2023/09/29 03:34:39;;;;;;;12.18;3.78;;;;;;;10.73;100.00;100369.16;5010646;28;20068;-41
2023/09/29 03:37:06;;;;;;;12.82;3.20;;;;;;;10.75;100.00;100377.13;5010445;28;20618;-41
2023/09/29 03:39:33;;;;;;;17.13;3.10;;;;;;;10.74;100.00;100375.50;5010503;28;20058;-41
2023/09/29 03:42:00;;;;;;;22.00;3.85;;;;;;;10.75;100.00;100382.66;5010335;28;20049;-42
2023/09/29 03:44:27;;;;;;;14.38;4.03;;;;;;;10.77;100.00;100381.13;5011263;28;20111;-41
2023/09/29 03:46:54;;;;;;;11.60;3.97;;;;;;;10.76;100.00;100390.59;5011068;28;20484;-41
2023/09/29 03:49:21;;;;;;;17.90;3.05;;;;;;;10.77;100.00;100392.22;5011457;28;20388;-41
2023/09/29 03:51:51;;;;;;;9.07;2.85;;;;;;;10.77;100.00;100392.22;5011051;28;20556;-42
2023/09/29 03:54:18;;;;;;;15.73;3.42;;;;;;;10.77;100.00;100388.63;5010939;28;20100;-41
2023/09/29 03:56:45;;;;;;;15.38;3.05;;;;;;;10.76;100.00;100395.31;5011738;28;20046;-41
2023/09/29 03:59:12;;;;;;;19.55;3.28;;;;;;;10.76;100.00;100396.13;5011441;28;20042;-41
2023/09/29 04:01:39;;;;;;;23.15;4.15;;;;;;;10.76;100.00;100404.44;5010843;28;20053;-41
2023/09/29 04:04:07;;;;;;;12.98;2.92;;;;;;;10.77;100.00;100408.84;5010949;28;20077;-41
2023/09/29 04:06:34;;;;;;;23.30;3.42;;;;;;;10.76;100.00;100417.47;5009616;28;20071;-42
2023/09/29 04:09:01;;;;;;;17.90;4.43;;;;;;;10.75;100.00;100415.88;5010423;28;20057;-41
2023/09/29 04:11:28;;;;;;;19.42;3.33;;;;;;;10.76;100.00;100420.25;5010714;28;20073;-42
2023/09/29 04:13:55;;;;;;;14.80;3.83;;;;;;;10.75;100.00;100426.97;5011327;28;20470;-43
2023/09/29 04:16:22;;;;;;;19.65;3.08;;;;;;;10.75;100.00;100426.97;5010337;28;20053;-41
2023/09/29 04:18:49;;;;;;;12.70;2.85;;;;;;;10.73;100.00;100443.91;5010325;28;20037;-42
2023/09/29 04:21:15;;;;;;;15.85;3.25;;;;;;;10.74;100.00;100439.19;5010525;28;20155;-42
2023/09/29 04:23:45;;;;;;;17.20;4.00;;;;;;;10.72;100.00;100450.59;5010386;28;20151;-43
2023/09/29 04:26:20;;;;;;;14.77;3.83;;;;;;;10.72;100.00;100455.34;5009495;28;20046;-41
2023/09/29 04:28:47;;;;;;;8.75;2.30;;;;;;;10.70;100.00;100452.91;5008375;28;20392;-42
2023/09/29 04:31:14;;;;;;;13.02;3.08;;;;;;;10.71;100.00;100454.53;5010485;28;20050;-41
2023/09/29 04:33:41;;;;;;;12.15;3.35;;;;;;;10.71;100.00;100467.56;5011339;28;20042;-43
2023/09/29 04:36:08;;;;;;;15.45;3.65;;;;;;;10.73;100.00;100468.03;5010513;28;20054;-42
2023/09/29 04:38:36;;;;;;;15.98;3.05;;;;;;;10.71;100.00;100473.09;5010594;28;20388;-44
2023/09/29 04:41:06;;;;;;;14.30;3.15;;;;;;;10.71;100.00;100465.63;5010088;28;20127;-44
2023/09/29 04:43:34;;;;;;;14.10;2.60;;;;;;;10.71;100.00;100467.56;5009887;28;20089;-45
2023/09/29 04:46:00;;;;;;;15.80;4.00;;;;;;;10.69;100.00;100462.41;5011139;28;20492;-44
2023/09/29 04:48:27;;;;;;;12.90;2.40;;;;;;;10.68;100.00;100460.78;5012342;28;20055;-44
2023/09/29 04:50:54;;;;;;;18.20;3.22;;;;;;;10.67;100.00;100475.00;5010648;28;20045;-43
2023/09/29 04:53:21;;;;;;;13.80;4.50;;;;;;;10.68;100.00;100479.34;5010072;28;20487;-44
2023/09/29 04:55:49;;;;;;;13.82;2.03;;;;;;;10.68;100.00;100479.34;5011031;28;20046;-47
2023/09/29 04:58:16;;;;;;;16.65;2.78;;;;;;;10.68;100.00;100493.19;5010555;28;20046;-43
2023/09/29 05:00:43;;;;;;;20.88;3.10;;;;;;;10.68;100.00;100498.72;5010137;28;20757;-43
2023/09/29 05:03:10;;;;;;;11.73;3.53;;;;;;;10.70;100.00;100499.19;5010196;28;20061;-44
2023/09/29 05:05:39;;;;;;;16.63;3.47;;;;;;;10.69;100.00;100503.13;5009965;28;20050;-44
2023/09/29 05:08:06;;;;;;;22.08;3.97;;;;;;;10.69;100.00;100500.34;5010867;28;20056;-44
2023/09/29 05:10:33;;;;;;;13.48;4.07;;;;;;;10.70;100.00;100516.59;5010712;28;20052;-44
2023/09/29 05:12:59;;;;;;;13.68;2.63;;;;;;;10.71;100.00;100509.91;5009856;28;20045;-44
2023/09/29 05:15:26;;;;;;;20.17;3.13;;;;;;;10.71;100.00;100520.19;5010408;28;20510;-44
2023/09/29 05:17:53;;;;;;;14.13;3.80;;;;;;;10.73;100.00;100534.47;5008827;28;20042;-44
2023/09/29 05:20:20;;;;;;;18.67;3.10;;;;;;;10.74;100.00;100533.31;5009110;28;20038;-45
2023/09/29 05:22:47;;;;;;;13.63;2.47;;;;;;;10.74;100.00;100534.13;5010477;28;20045;-44
2023/09/29 05:25:13;;;;;;;19.15;3.13;;;;;;;10.74;100.00;100534.13;5009597;28;20140;-44
2023/09/29 05:27:40;;;;;;;12.18;2.95;;;;;;;10.73;100.00;100540.81;5007535;28;20050;-44
2023/09/29 05:30:08;;;;;;;12.32;2.83;;;;;;;10.73;100.00;100546.34;5006058;28;20042;-46
2023/09/29 05:32:35;;;;;;;5.28;1.85;;;;;;;10.75;100.00;100541.28;5006952;28;20188;-44
2023/09/29 05:35:02;;;;;;;21.60;4.03;;;;;;;10.76;100.00;100545.66;5009093;28;20046;-46
2023/09/29 05:37:30;;;;;;;12.13;2.38;;;;;;;10.76;100.00;100551.19;5008624;28;20053;-44
2023/09/29 05:40:02;;;;;;;14.77;2.28;;;;;;;10.78;100.00;100553.59;5009281;28;20096;-44
2023/09/29 05:42:33;;;;;;;11.95;2.10;;;;;;;10.80;100.00;100556.84;5009001;28;20092;-46
2023/09/29 05:45:20;;;;;;;15.60;3.10;;;;;;;10.84;100.00;100550.25;5007388;28;20042;-44
2023/09/29 05:47:49;;;;;;;10.18;2.42;;;;;;;10.87;100.00;100565.34;5009672;28;20069;-44
2023/09/29 05:50:18;;;;;;;16.63;4.10;;;;;;;10.88;100.00;100562.22;5008771;28;20072;-44
2023/09/29 05:52:47;;;;;;;10.45;2.22;;;;;;;10.90;100.00;100573.78;5009630;28;20045;-44
2023/09/29 05:55:30;;;;;;;10.05;3.03;;;;;;;10.93;100.00;100581.34;5009308;28;20049;-45
2023/09/29 05:58:02;;;;;;;12.80;2.03;;;;;;;10.96;100.00;100586.19;5009068;28;20038;-47
2023/09/29 06:00:29;;;;;;;14.10;2.28;;;;;;;10.99;100.00;100587.47;5008640;28;20053;-44
2023/09/29 06:02:59;;;;;;;11.40;2.30;;;;;;;11.02;100.00;100595.06;5006676;28;20141;-45
2023/09/29 06:05:28;;;;;;;17.83;2.22;;;;;;;11.03;100.00;100588.38;5008773;28;20116;-44
2023/09/29 06:07:56;;;;;;;8.25;2.13;;;;;;;11.05;100.00;100597.16;5006127;28;20042;-44
2023/09/29 06:10:25;;;;;;;14.32;2.45;;;;;;;11.05;100.00;100597.16;5008204;28;20042;-44
2023/09/29 06:12:53;;;;;;;17.95;3.90;;;;;;;11.06;100.00;100607.06;5009700;28;20080;-44
2023/09/29 06:15:20;;;;;;;13.90;3.40;;;;;;;11.07;100.00;100616.97;5006887;28;20403;-44
2023/09/29 06:17:46;;;;;;;17.58;2.20;;;;;;;11.07;100.00;100618.97;5007654;28;20041;-48
2023/09/29 06:20:13;;;;;;;10.75;2.13;;;;;;;11.07;100.00;100628.06;5008297;28;20100;-44
2023/09/29 06:22:40;;;;;;;23.67;3.17;;;;;;;11.08;100.00;100629.69;5009134;28;20364;-46
2023/09/29 06:25:07;;;;;;;19.60;2.75;;;;;;;11.08;100.00;100632.47;5008305;28;20483;-46
2023/09/29 06:27:34;;;;;;;15.20;2.33;;;;;;;11.08;100.00;100637.19;5008107;28;20504;-44
2023/09/29 06:30:01;;;;;;;8.18;2.80;;;;;;;11.06;100.00;100637.56;5006518;28;20092;-44
2023/09/29 06:32:28;;;;;;;20.83;5.10;;;;;;;11.05;100.00;100635.94;5011016;28;20484;-44
2023/09/29 06:34:55;;;;;;;12.38;2.33;;;;;;;11.07;100.00;100649.44;5012195;28;20088;-45
2023/09/29 06:37:22;;;;;;;12.63;2.97;;;;;;;11.08;100.00;100646.31;5011858;28;20049;-47
2023/09/29 06:39:50;;;;;;;20.95;3.80;;;;;;;11.08;100.00;100651.84;5012221;28;20839;-43
2023/09/29 06:42:17;;;;;;;11.98;3.00;;;;;;;11.07;100.00;100658.53;5010450;28;20045;-46
2023/09/29 06:44:45;;;;;;;18.10;2.30;;;;;;;11.05;100.00;100663.63;5012360;28;20057;-44
2023/09/29 06:47:12;;;;;;;19.08;2.65;;;;;;;11.03;100.00;100671.50;5013412;28;20069;-46
2023/09/29 06:49:39;;;;;;;10.30;2.47;;;;;;;11.04;100.00;100672.31;5010007;28;20045;-44
2023/09/29 06:52:08;;;;;;;15.55;2.65;;;;;;;11.02;100.00;100676.22;5011131;28;20054;-45
2023/09/29 06:54:35;;;;;;;13.68;2.40;;;;;;;11.04;100.00;100677.84;5011341;28;20495;-45
2023/09/29 06:57:01;;;;;;;15.60;2.45;;;;;;;11.08;100.00;100687.88;5008743;28;20122;-45
2023/09/29 06:59:30;;;;;;;9.10;2.00;;;;;;;11.10;100.00;100691.09;5011747;28;20108;-46
2023/09/29 07:01:58;;;;;;;13.05;2.63;;;;;;;11.10;100.00;100693.88;5011874;28;20064;-45
2023/09/29 07:04:26;;;;;;;18.50;2.30;;;;;;;11.10;100.00;100699.41;5002249;28;20084;-45
2023/09/29 07:06:53;;;;;;;8.55;2.67;;;;;;;11.11;100.00;100698.25;5011533;28;20056;-45
2023/09/29 07:09:22;;;;;;;17.90;2.17;;;;;;;11.11;100.00;100698.25;5011433;28;20135;-45
2023/09/29 07:11:49;;;;;;;13.90;2.10;;;;;;;11.14;100.00;100705.88;5010341;28;20049;-46
2023/09/29 07:14:16;;;;;;;11.82;2.42;;;;;;;11.18;100.00;100712.31;5011484;28;20053;-45
2023/09/29 07:16:44;;;;;;;16.27;3.65;;;;;;;11.21;100.00;100713.56;5011334;28;20049;-46
2023/09/29 07:19:13;;;;;;;21.33;3.00;;;;;;;11.25;100.00;100717.28;5009612;28;20662;-45
2023/09/29 07:21:41;;;;;;;15.40;2.15;;;;;;;11.28;100.00;100725.69;5007911;28;20053;-44
2023/09/29 07:24:08;;;;;;;17.50;2.47;;;;;;;11.31;100.00;100729.72;5010200;28;20121;-48
2023/09/29 07:26:35;;;;;;;18.30;4.88;;;;;;;11.34;100.00;100727.06;5011676;28;20537;-45
2023/09/29 07:29:04;;;;;;;16.63;2.05;;;;;;;11.38;100.00;100727.19;5008805;28;20135;-46
2023/09/29 07:31:56;;;;;;;17.63;5.28;;;;;;;11.41;100.00;100738.34;5011205;28;20042;-45
2023/09/29 07:34:27;;;;;;;21.90;3.70;;;;;;;11.46;100.00;100729.00;5009550;28;20571;-45
2023/09/29 07:36:54;;;;;;;11.43;2.22;;;;;;;11.51;100.00;100737.06;5009681;28;20136;-45
2023/09/29 07:39:21;;;;;;;18.00;3.20;;;;;;;11.54;100.00;100745.47;5012199;28;20045;-45
2023/09/29 07:41:49;;;;;;;15.45;3.53;;;;;;;11.56;100.00;100745.13;5011544;28;20056;-45
2023/09/29 07:44:16;;;;;;;13.27;2.50;;;;;;;11.58;100.00;100742.81;5010382;28;20046;-45
2023/09/29 07:46:45;;;;;;;8.20;2.40;;;;;;;11.60;100.00;100752.38;5009623;28;20050;-46
2023/09/29 07:49:14;;;;;;;14.50;2.33;;;;;;;11.65;100.00;100753.31;5002784;28;20083;-44
2023/09/29 07:51:42;;;;;;;15.70;2.88;;;;;;;11.68;100.00;100760.91;5009812;28;20084;-45
2023/09/29 07:54:09;;;;;;;15.13;2.67;;;;;;;11.70;100.00;100767.78;5011795;28;20045;-44
2023/09/29 07:56:36;;;;;;;9.68;2.45;;;;;;;11.74;100.00;100778.94;5011653;28;20049;-45
2023/09/29 07:59:03;;;;;;;14.75;2.38;;;;;;;11.77;100.00;100778.25;5010907;28;20046;-44
2023/09/29 08:01:31;;;;;;;15.73;2.80;;;;;;;11.80;100.00;100780.31;5006664;28;20050;-44
2023/09/29 08:03:58;;;;;;;19.58;2.33;;;;;;;11.82;100.00;100780.78;5008040;28;20050;-44
2023/09/29 08:06:25;;;;;;;15.50;3.10;;;;;;;11.87;100.00;100783.28;5009799;28;20053;-44
2023/09/29 08:08:52;;;;;;;18.55;2.50;;;;;;;11.91;100.00;100781.44;5010822;28;20484;-45
2023/09/29 08:11:20;;;;;;;7.28;2.17;;;;;;;11.95;100.00;100799.78;5010644;28;20125;-45
2023/09/29 08:13:49;;;;;;;11.27;2.42;;;;;;;12.00;100.00;100804.28;5010093;28;20054;-45
2023/09/29 08:16:16;;;;;;;16.98;2.70;;;;;;;12.06;100.00;100800.09;5009231;28;20049;-46
2023/09/29 08:18:42;;;;;;;12.35;2.53;;;;;;;12.14;100.00;100799.13;5010309;28;20404;-44
2023/09/29 08:21:09;;;;;;;13.23;2.65;;;;;;;12.20;100.00;100811.59;5010218;28;20053;-44
2023/09/29 08:23:39;;;;;;;10.95;2.10;;;;;;;12.26;100.00;100801.84;5009722;28;20053;-44
2023/09/29 08:26:06;;;;;;;7.35;2.13;;;;;;;12.29;100.00;100811.41;5010511;28;20166;-44
2023/09/29 08:28:33;;;;;;;9.15;2.17;;;;;;;12.32;100.00;100821.81;5008441;28;20064;-46
2023/09/29 08:31:00;;;;;;;12.63;2.85;;;;;;;12.34;100.00;100825.84;5009629;28;20049;-44
2023/09/29 08:33:28;;;;;;;10.85;2.17;;;;;;;12.40;100.00;100824.44;5010732;28;20507;-43
2023/09/29 08:36:16;;;;;;;13.75;2.60;;;;;;;12.44;100.00;100830.91;5008982;28;20048;-44
2023/09/29 08:38:43;;;;;;;16.73;2.40;;;;;;;12.50;100.00;100835.03;5010413;28;20038;-45
2023/09/29 08:41:10;;;;;;;7.05;1.60;;;;;;;12.58;100.00;100839.59;5010199;28;20050;-45
2023/09/29 08:43:39;;;;;;;10.07;1.67;;;;;;;12.63;100.00;100850.44;5009119;28;20045;-50
2023/09/29 08:46:15;;;;;;;9.55;1.90;;;;;;;12.67;100.00;100843.03;5009486;28;20041;-44
2023/09/29 08:48:43;;;;;;;11.95;2.17;;;;;;;12.73;100.00;100854.69;5010498;28;20128;-44
2023/09/29 08:51:12;;;;;;;15.65;3.60;;;;;;;12.86;100.00;100852.63;5009490;28;20041;-44
2023/09/29 08:53:43;;;;;;;15.88;2.25;;;;;;;12.96;100.00;100868.78;5009680;28;20050;-45
2023/09/29 08:56:13;;;;;;;10.00;1.63;;;;;;;13.04;100.00;100876.13;5010492;28;20136;-45
2023/09/29 08:58:43;;;;;;;11.05;1.83;;;;;;;13.09;100.00;100893.38;5010580;28;20046;-44
2023/09/29 09:01:10;;;;;;;16.30;2.30;;;;;;;13.19;100.00;100900.34;5009309;28;20042;-44
2023/09/29 09:03:37;;;;;;;10.10;3.88;;;;;;;13.24;100.00;100902.88;5009849;28;20042;-44
2023/09/29 09:06:22;;;;;;;9.35;2.40;;;;;;;13.33;100.00;100900.72;5009903;28;20041;-49
2023/09/29 09:08:53;;;;;;;15.27;2.13;;;;;;;13.44;100.00;100904.56;5007801;28;20412;-46
2023/09/29 09:11:21;;;;;;;18.20;2.10;;;;;;;13.62;100.00;100910.56;5010633;28;20496;-44
2023/09/29 09:14:01;;;;;;;17.10;3.88;;;;;;;13.83;100.00;100913.81;5009312;28;20034;-45
2023/09/29 09:16:32;;;;;;;;;;;;;;;14.03;100.00;100926.63;5023821;28;20053;-45
2023/09/29 09:19:12;;;;;;;14.00;2.92;;;;;;;14.44;100.00;100922.34;5009983;28;19929;-46
2023/09/29 09:21:42;;;;;;;13.00;3.83;;;;;;;14.84;100.00;100922.75;5009105;28;20381;-45
2023/09/29 09:24:23;;;;;;;15.85;3.03;;;;;;;15.27;100.00;100944.63;5009976;28;20053;-53
2023/09/29 09:27:00;;;;;;;9.30;2.03;;;;;;;15.74;100.00;100944.28;5007738;28;20418;-46
2023/09/29 09:29:28;;;;;;;17.40;2.85;;;;;;;16.20;100.00;100953.31;5009461;28;20058;-45
2023/09/29 09:31:56;;;;;;;15.05;3.40;;;;;;;16.80;100.00;100956.09;5007841;28;20041;-45
2023/09/29 09:34:33;;;;;;;9.00;2.33;;;;;;;17.34;95.91;100959.06;5009744;28;20104;-46
2023/09/29 09:37:00;;;;;;;11.52;3.15;;;;;;;17.71;91.80;100961.03;5007239;28;20103;-45
2023/09/29 09:39:28;;;;;;;14.20;3.28;;;;;;;18.09;88.55;100961.28;5010028;28;20144;-44
2023/09/29 09:41:56;;;;;;;17.58;3.03;;;;;;;18.41;85.41;100964.28;5008898;28;20065;-45
2023/09/29 09:44:26;;;;;;;6.68;1.95;;;;;;;18.94;82.85;100967.31;5008487;28;20050;-46
2023/09/29 09:47:10;;;;;;;10.60;2.63;;;;;;;19.48;80.29;100980.28;5008847;28;20090;-47
2023/09/29 09:49:46;;;;;;;8.13;1.98;;;;;;;19.87;78.29;100983.91;4998772;28;20136;-44
2023/09/29 09:52:24;;;;;;;12.30;2.80;;;;;;;19.61;76.91;100992.72;5008101;28;20593;-45
2023/09/29 09:54:53;;;;;;;12.65;2.58;;;;;;;19.53;73.61;100996.75;5009820;28;20427;-45
2023/09/29 09:57:34;;;;;;;12.88;2.05;;;;;;;19.19;74.24;100992.66;5009212;28;20507;-46
2023/09/29 10:00:06;;;;;;;15.93;2.60;;;;;;;19.20;72.16;101005.47;5006704;28;20045;-45
2023/09/29 10:02:43;;;;;;;13.88;3.00;;;;;;;18.88;72.55;101007.38;5007956;28;20107;-45
2023/09/29 10:05:30;;;;;;;11.73;2.22;;;;;;;18.71;72.43;101023.75;5008543;28;20050;-45
2023/09/29 10:08:05;;;;;;;10.82;1.77;;;;;;;18.43;71.99;101023.53;5009056;28;20054;-45
2023/09/29 10:10:41;;;;;;;18.58;2.72;;;;;;;18.21;71.87;101027.44;5009141;28;20495;-42
2023/09/29 10:13:11;;;;;;;12.38;2.08;;;;;;;18.06;72.00;101040.53;5008911;28;20058;-40
2023/09/29 10:15:39;;;;;;;16.33;2.97;;;;;;;18.54;70.49;101034.84;5005146;28;20041;-40
2023/09/29 10:18:21;;;;;;;8.98;2.25;;;;;;;18.78;69.88;101035.00;5008289;28;20064;-45
2023/09/29 10:20:58;;;;;;;9.85;2.25;;;;;;;19.18;68.06;101036.75;5009529;28;20048;-46
2023/09/29 10:23:28;;;;;;;10.25;3.00;;;;;;;19.49;66.84;101035.22;5008325;28;20120;-45
2023/09/29 10:26:04;;;;;;;12.75;2.83;;;;;;;19.71;66.90;101028.44;5009048;28;20045;-50
2023/09/29 10:28:32;;;;;;;10.38;2.22;;;;;;;20.25;64.90;101043.31;5009282;28;20053;-46
2023/09/29 10:31:13;;;;;;;13.00;2.45;;;;;;;20.65;64.19;101040.03;5008378;28;20042;-45
2023/09/29 10:33:52;;;;;;;11.63;3.13;;;;;;;21.02;62.91;101043.06;5008584;28;20483;-45
2023/09/29 10:36:22;;;;;;;9.05;2.25;;;;;;;20.98;61.45;101050.75;5009176;28;20042;-45
2023/09/29 10:38:50;;;;;;;11.30;2.60;;;;;;;20.33;62.59;101050.53;5008021;28;20050;-48
2023/09/29 10:41:23;;;;;;;10.93;2.95;;;;;;;20.39;62.56;101052.53;5008671;28;20056;-50
2023/09/29 10:44:03;;;;;;;7.95;1.77;;;;;;;20.64;61.72;101050.47;5009327;28;20049;-46
2023/09/29 10:46:30;;;;;;;7.13;1.55;;;;;;;20.86;60.88;101054.03;5006338;28;20045;-45
2023/09/29 10:48:58;;;;;;;9.75;1.88;;;;;;;21.08;60.06;101058.38;5008485;28;20049;-46
2023/09/29 10:51:33;;;;;;;7.13;2.05;;;;;;;21.03;60.14;101055.16;5008776;28;20054;-45
2023/09/29 10:54:02;;;;;;;11.77;3.53;;;;;;;20.52;60.59;101059.31;5008651;28;20042;-47
2023/09/29 10:56:31;;;;;;;9.55;2.15;;;;;;;19.73;61.65;101051.31;5009083;28;20050;-45
2023/09/29 10:58:58;;;;;;;11.70;2.15;;;;;;;19.38;62.89;101048.44;5008378;28;20050;-44
2023/09/29 11:01:33;;;;;;;7.57;1.80;;;;;;;19.29;63.21;101053.63;5007457;28;22294;-46
2023/09/29 11:04:03;;;;;;;11.55;2.53;;;;;;;19.03;63.83;101056.75;5008001;28;20125;-47
2023/09/29 11:06:43;;;;;;;7.82;2.42;;;;;;;18.56;65.20;101058.50;5006181;28;20115;-44
2023/09/29 11:09:15;;;;;;;9.00;1.77;;;;;;;18.31;66.00;101065.94;5009087;28;20132;-46
2023/09/29 11:11:42;;;;;;;8.07;1.70;;;;;;;18.07;66.88;101072.16;5008074;28;20057;-45
2023/09/29 11:14:09;;;;;;;14.32;2.95;;;;;;;17.91;67.85;101068.81;5008397;28;20034;-45
2023/09/29 11:16:36;;;;;;;9.90;1.90;;;;;;;17.74;68.21;101080.66;5007741;28;20041;-46
2023/09/29 11:19:11;;;;;;;12.43;1.83;;;;;;;17.57;68.70;101070.91;5012411;28;20137;-45
2023/09/29 11:21:41;;;;;;;9.63;2.53;;;;;;;17.34;69.15;101070.22;5011299;28;20523;-47
2023/09/29 11:24:13;;;;;;;10.13;2.65;;;;;;;17.16;69.90;101081.19;5009065;28;20041;-45
2023/09/29 11:26:42;;;;;;;11.40;1.92;;;;;;;16.98;70.15;101083.78;5007857;28;20112;-45